Time;durP1;ratioP1;P1;durP2;ratioP2;P2;SDS_P1;SDS_P2;PMS_P1;PMS_P2;Temp;Humidity;BMP_temperature;BMP_pressure;BME280_temperature;BME280_humidity;BME280_pressure;Samples;Min_cycle;Max_cycle;Signal;HPM_P1;HPM_P2
2023/10/31 00:00:46;;;;;;;;;;;12.10;99.90;;;;;;4878023;29;20254;-80
2023/10/31 00:03:34;;;;;;;;;;;12.10;99.90;;;;;;4853716;29;20091;-82
2023/10/31 00:06:25;;;;;;;;;;;12.10;99.90;;;;;;4854307;29;19941;-80
2023/10/31 00:09:15;;;;;;;;;;;12.10;99.90;;;;;;4837816;29;19928;-79
2023/10/31 00:11:41;;;;;;;;;;;12.10;99.90;;;;;;4835206;29;19956;-79
2023/10/31 00:14:24;;;;;;;;;;;12.10;99.90;;;;;;4833174;29;19912;-79
2023/10/31 00:16:50;;;;;;;;;;;12.10;99.90;;;;;;4863044;29;19923;-78
2023/10/31 00:23:06;;;;;;;;;;;12.10;99.90;;;;;;4872425;29;20001;-78
2023/10/31 00:25:57;;;;;;;;;;;12.20;99.90;;;;;;4872213;29;19919;-79
2023/10/31 00:31:46;;;;;;;;;;;12.00;99.90;;;;;;4872392;29;20182;-79
2023/10/31 00:34:18;;;;;;;;;;;11.90;99.90;;;;;;4873088;29;19912;-79
2023/10/31 00:36:43;;;;;;;;;;;11.90;99.90;;;;;;4872269;29;19919;-79
2023/10/31 00:39:15;;;;;;;;;;;11.90;99.90;;;;;;4859709;29;20114;-78
2023/10/31 00:41:44;;;;;;;;;;;11.90;99.90;;;;;;4886473;29;19955;-79
2023/10/31 00:44:10;;;;;;;;;;;11.90;99.90;;;;;;4876758;29;19946;-78
2023/10/31 00:46:35;;;;;;;;;;;11.90;99.90;;;;;;4888455;29;19912;-80
2023/10/31 00:49:01;;;;;;;;;;;11.90;99.90;;;;;;4891833;29;19912;-81
2023/10/31 00:51:27;;;;;;;;;;;11.90;99.90;;;;;;4891971;29;19915;-77
2023/10/31 00:54:08;;;;;;;;;;;11.90;99.90;;;;;;4889949;29;19912;-77
2023/10/31 00:56:59;;;;;;;;;;;11.80;99.90;;;;;;4890986;29;20010;-79
2023/10/31 00:59:30;;;;;;;;;;;11.80;99.90;;;;;;4874471;29;19911;-80
2023/10/31 01:02:21;;;;;;;;;;;11.80;99.90;;;;;;4878413;29;19922;-78
2023/10/31 01:04:57;;;;;;;;;;;11.80;99.90;;;;;;4874946;29;19918;-78
2023/10/31 01:07:23;;;;;;;;;;;11.90;99.90;;;;;;4880861;29;20245;-78
2023/10/31 01:09:54;;;;;;;;;;;11.90;99.90;;;;;;4913163;29;19942;-78
2023/10/31 01:12:23;;;;;;;;;;;11.90;99.90;;;;;;4913187;29;20105;-78
2023/10/31 01:15:07;;;;;;;;;;;11.80;99.90;;;;;;4930047;29;19911;-79
2023/10/31 01:17:35;;;;;;;;;;;11.90;99.90;;;;;;4929944;29;20117;-77
2023/10/31 01:20:24;;;;;;;;;;;11.80;99.90;;;;;;4896963;29;20099;-78
2023/10/31 01:23:09;;;;;;;;;;;11.70;99.90;;;;;;4877776;29;19913;-77
2023/10/31 01:25:35;;;;;;;;;;;11.60;99.90;;;;;;4870339;29;19912;-78
2023/10/31 01:28:01;;;;;;;;;;;11.40;99.90;;;;;;4855246;29;19927;-79
2023/10/31 08:37:54;;;;;;;;;;;12.50;99.90;;;;;;5657324;23;20203;-77
2023/10/31 08:40:21;;;;;;;;;;;12.60;99.90;;;;;;4943355;29;19949;-74
2023/10/31 08:42:46;;;;;;;;;;;12.60;99.90;;;;;;4943458;29;19910;-73
2023/10/31 08:45:12;;;;;;;;;;;12.80;99.90;;;;;;4939330;29;19914;-74
2023/10/31 08:47:38;;;;;;;;;;;12.80;99.90;;;;;;4915173;29;19919;-74
2023/10/31 08:50:04;;;;;;;;;;;12.70;99.90;;;;;;4930524;29;19910;-75
2023/10/31 08:52:29;;;;;;;;;;;12.60;99.90;;;;;;4948219;29;19907;-72
2023/10/31 08:54:55;;;;;;;;;;;12.60;99.90;;;;;;4942455;29;19933;-74
2023/10/31 08:57:21;;;;;;;;;;;12.60;99.90;;;;;;4897778;29;19918;-74
2023/10/31 08:59:47;;;;;;;;;;;12.90;99.90;;;;;;4912813;29;20100;-74
2023/10/31 09:02:13;;;;;;;;;;;13.00;99.90;;;;;;4910238;29;19926;-76
2023/10/31 09:04:38;;;;;;;;;;;13.00;99.90;;;;;;4933862;29;19911;-74
2023/10/31 09:07:04;;;;;;;;;;;13.00;99.90;;;;;;4909655;29;19915;-75
2023/10/31 09:09:30;;;;;;;;;;;13.10;99.90;;;;;;4903603;29;19918;-74
2023/10/31 09:12:03;;;;;;;;;;;13.10;99.90;;;;;;4920383;29;19911;-74
2023/10/31 09:14:30;;;;;;;;;;;13.20;99.90;;;;;;4897362;29;19910;-75
2023/10/31 09:16:55;;;;;;;;;;;13.10;99.90;;;;;;4927219;29;19911;-74
2023/10/31 09:19:21;;;;;;;;;;;13.20;99.90;;;;;;4900735;29;19985;-75
2023/10/31 09:21:46;;;;;;;;;;;13.30;99.90;;;;;;4910607;29;19911;-73
2023/10/31 09:24:12;;;;;;;;;;;13.40;99.90;;;;;;4943463;29;20135;-75
2023/10/31 09:26:59;;;;;;;;;;;13.50;99.90;;;;;;4930734;29;19938;-79
2023/10/31 09:29:25;;;;;;;;;;;13.70;99.90;;;;;;4914516;29;19918;-75
2023/10/31 09:31:51;;;;;;;;;;;13.70;99.90;;;;;;4947256;29;20089;-76
2023/10/31 09:34:17;;;;;;;;;;;13.60;99.90;;;;;;4946747;29;19931;-73
2023/10/31 09:36:43;;;;;;;;;;;13.70;99.90;;;;;;4929567;29;20200;-75
2023/10/31 09:39:12;;;;;;;;;;;13.70;99.90;;;;;;4907162;29;19920;-73
2023/10/31 09:41:40;;;;;;;;;;;13.70;99.70;;;;;;4909249;29;19912;-75
2023/10/31 09:44:06;;;;;;;;;;;13.60;99.90;;;;;;4923246;29;19911;-74
2023/10/31 09:46:41;;;;;;;;;;;13.60;99.90;;;;;;4940799;29;19982;-75
2023/10/31 09:49:08;;;;;;;;;;;13.70;99.90;;;;;;4927392;29;20220;-75
2023/10/31 09:51:34;;;;;;;;;;;13.70;99.90;;;;;;4927052;29;20096;-74
2023/10/31 09:54:01;;;;;;;;;;;13.60;99.90;;;;;;4927907;29;19907;-73
2023/10/31 09:56:34;;;;;;;;;;;13.60;99.90;;;;;;4918741;29;19912;-71
2023/10/31 09:59:04;;;;;;;;;;;13.60;99.90;;;;;;4918694;29;19919;-74
2023/10/31 10:01:29;;;;;;;;;;;13.80;99.20;;;;;;4908799;29;19936;-73
2023/10/31 10:03:56;;;;;;;;;;;13.90;99.10;;;;;;4918965;29;19911;-72
2023/10/31 10:06:28;;;;;;;;;;;13.90;99.10;;;;;;4926088;29;19991;-74
2023/10/31 10:08:55;;;;;;;;;;;14.00;99.40;;;;;;4926171;29;19919;-75
2023/10/31 10:11:21;;;;;;;;;;;14.00;99.10;;;;;;4926943;29;19979;-74
2023/10/31 10:13:47;;;;;;;;;;;13.90;99.40;;;;;;4927215;29;19907;-75
2023/10/31 10:16:31;;;;;;;;;;;13.90;99.20;;;;;;4941455;29;19918;-74
2023/10/31 10:18:57;;;;;;;;;;;14.00;98.90;;;;;;4927490;29;19911;-73
2023/10/31 10:21:23;;;;;;;;;;;13.80;99.50;;;;;;4926584;29;19987;-74
2023/10/31 10:23:51;;;;;;;;;;;13.80;99.80;;;;;;4925870;29;19963;-76
2023/10/31 10:26:16;;;;;;;;;;;13.80;99.90;;;;;;4926461;29;19914;-75
2023/10/31 10:28:46;;;;;;;;;;;13.90;99.90;;;;;;4927458;29;20097;-75
2023/10/31 10:31:13;;;;;;;;;;;13.70;99.90;;;;;;4912568;29;19923;-74
2023/10/31 10:33:40;;;;;;;;;;;13.90;99.90;;;;;;4926501;29;19907;-73
2023/10/31 10:36:06;;;;;;;;;;;13.90;99.80;;;;;;4923279;29;19911;-73
2023/10/31 10:38:35;;;;;;;;;;;14.00;99.80;;;;;;4927132;29;20119;-75
2023/10/31 10:41:02;;;;;;;;;;;13.90;99.90;;;;;;4944923;29;19974;-73
2023/10/31 10:43:28;;;;;;;;;;;13.80;99.90;;;;;;4928406;29;19911;-74
2023/10/31 10:45:57;;;;;;;;;;;13.80;99.90;;;;;;4928596;29;20199;-80
2023/10/31 10:48:23;;;;;;;;;;;13.70;99.90;;;;;;4927807;29;19914;-78
2023/10/31 10:51:12;;;;;;;;;;;13.60;99.90;;;;;;4928715;29;19999;-75
2023/10/31 10:53:49;;;;;;;;;;;13.60;99.90;;;;;;4926746;29;19930;-76
2023/10/31 10:56:34;;;;;;;;;;;13.30;99.90;;;;;;4944618;29;19911;-76
2023/10/31 10:59:06;;;;;;;;;;;13.40;99.90;;;;;;4945771;29;19910;-77
2023/10/31 11:01:32;;;;;;;;;;;13.30;99.90;;;;;;4945143;29;19967;-76
2023/10/31 11:03:59;;;;;;;;;;;13.60;99.90;;;;;;4944200;29;19914;-77
2023/10/31 11:06:25;;;;;;;;;;;13.70;99.90;;;;;;4928063;29;20443;-78
2023/10/31 11:08:52;;;;;;;;;;;13.90;99.90;;;;;;4945410;29;19941;-78
2023/10/31 11:11:19;;;;;;;;;;;14.20;99.80;;;;;;4924915;29;20177;-80
2023/10/31 11:13:45;;;;;;;;;;;14.40;99.70;;;;;;4894162;29;19977;-76
2023/10/31 11:16:14;;;;;;;;;;;14.50;98.90;;;;;;4909866;29;19912;-76
2023/10/31 11:18:41;;;;;;;;;;;14.40;98.70;;;;;;4927299;29;19911;-75
2023/10/31 11:21:10;;;;;;;;;;;14.40;98.30;;;;;;4925413;29;19907;-77
2023/10/31 11:23:36;;;;;;;;;;;14.40;98.80;;;;;;4909697;29;20070;-77
2023/10/31 11:26:02;;;;;;;;;;;14.40;99.10;;;;;;4893772;29;19911;-77
2023/10/31 11:28:32;;;;;;;;;;;14.40;99.20;;;;;;4925082;29;19918;-77
2023/10/31 11:31:01;;;;;;;;;;;14.50;99.00;;;;;;4925402;29;19959;-78
2023/10/31 11:33:28;;;;;;;;;;;14.80;98.50;;;;;;4924762;29;19926;-77
2023/10/31 11:36:01;;;;;;;;;;;14.70;98.40;;;;;;4925473;29;19914;-77
2023/10/31 11:38:30;;;;;;;;;;;14.60;98.70;;;;;;4924491;29;19922;-78
2023/10/31 11:41:11;;;;;;;;;;;14.50;98.90;;;;;;4909579;29;19942;-79
2023/10/31 11:43:40;;;;;;;;;;;14.50;99.00;;;;;;4927846;29;19911;-77
2023/10/31 11:46:24;;;;;;;;;;;14.40;99.10;;;;;;4947772;29;20144;-79
2023/10/31 11:48:56;;;;;;;;;;;14.50;99.10;;;;;;4930549;29;19918;-77
2023/10/31 11:55:17;;;;;;;;;;;14.40;99.30;;;;;;4924240;29;19942;-79
2023/10/31 11:57:44;;;;;;;;;;;14.30;99.50;;;;;;4913408;29;20114;-78
2023/10/31 12:00:45;;;;;;;;;;;14.40;99.50;;;;;;4928974;29;19918;-79
2023/10/31 12:03:21;;;;;;;;;;;14.50;99.80;;;;;;4908478;29;19982;-81
2023/10/31 12:05:56;;;;;;;;;;;14.50;99.30;;;;;;4893226;29;20003;-78
2023/10/31 12:08:41;;;;;;;;;;;14.60;98.90;;;;;;4911759;29;19919;-78
2023/10/31 12:11:06;;;;;;;;;;;14.60;98.70;;;;;;4912574;29;19926;-78
2023/10/31 12:14:08;;;;;;;;;;;14.60;98.60;;;;;;4898589;29;19911;-77
2023/10/31 12:16:34;;;;;;;;;;;14.60;98.40;;;;;;4872524;29;20103;-77
2023/10/31 12:19:07;;;;;;;;;;;14.70;98.60;;;;;;4933000;29;19918;-78
2023/10/31 12:22:06;;;;;;;;;;;14.80;98.50;;;;;;4915080;29;19907;-77
2023/10/31 12:28:00;;;;;;;;;;;14.80;99.30;;;;;;4944289;29;19929;-78
2023/10/31 12:30:57;;;;;;;;;;;14.70;99.80;;;;;;4947687;29;19915;-77
2023/10/31 12:33:38;;;;;;;;;;;14.70;99.90;;;;;;4929891;29;19997;-77
2023/10/31 12:36:04;;;;;;;;;;;14.80;99.80;;;;;;4912078;29;19915;-76
2023/10/31 12:38:29;;;;;;;;;;;14.90;99.90;;;;;;4895546;29;20049;-77
2023/10/31 12:44:40;;;;;;;;;;;14.80;99.40;;;;;;4889524;29;19979;-78
2023/10/31 12:47:37;;;;;;;;;;;14.70;99.70;;;;;;4889064;29;19945;-78
2023/10/31 12:51:01;;;;;;;;;;;14.40;99.90;;;;;;4875945;29;19952;-76
2023/10/31 12:53:45;;;;;;;;;;;14.50;99.90;;;;;;4868349;29;19926;-78
2023/10/31 12:56:11;;;;;;;;;;;14.50;99.90;;;;;;4855024;29;19919;-78
2023/10/31 12:58:42;;;;;;;;;;;14.50;99.90;;;;;;4888456;29;19912;-77
2023/10/31 13:01:19;;;;;;;;;;;14.40;99.90;;;;;;4858106;29;20044;-78
2023/10/31 13:07:32;;;;;;;;;;;14.40;99.90;;;;;;4869940;29;19922;-78
2023/10/31 13:09:59;;;;;;;;;;;14.50;99.90;;;;;;4878286;29;19916;-76
2023/10/31 13:12:46;;;;;;;;;;;14.50;99.90;;;;;;4871100;29;19953;-77
2023/10/31 13:15:30;;;;;;;;;;;14.40;99.90;;;;;;4855243;29;20025;-78
2023/10/31 13:17:59;;;;;;;;;;;14.50;99.90;;;;;;4870908;29;19983;-76
2023/10/31 13:20:25;;;;;;;;;;;14.40;99.90;;;;;;4879173;29;19939;-74
2023/10/31 13:22:50;;;;;;;;;;;14.50;99.90;;;;;;4890236;29;19911;-77
2023/10/31 13:25:29;;;;;;;;;;;14.70;99.90;;;;;;4889654;29;19908;-77
2023/10/31 13:28:32;;;;;;;;;;;14.80;99.90;;;;;;4853631;29;19959;-78
2023/10/31 13:31:32;;;;;;;;;;;14.80;99.50;;;;;;4873873;29;20110;-77
2023/10/31 13:34:25;;;;;;;;;;;14.70;99.80;;;;;;4888691;29;19936;-77
2023/10/31 13:36:54;;;;;;;;;;;14.70;99.90;;;;;;4873420;29;19972;-78
2023/10/31 13:39:23;;;;;;;;;;;14.60;99.70;;;;;;4857325;29;19995;-79
2023/10/31 13:41:52;;;;;;;;;;;14.60;99.90;;;;;;4858474;29;19911;-76
2023/10/31 13:44:20;;;;;;;;;;;14.80;99.80;;;;;;4869324;29;19911;-76
2023/10/31 13:50:20;;;;;;;;;;;14.70;99.70;;;;;;4891233;29;19938;-79
2023/10/31 13:53:11;;;;;;;;;;;14.50;99.90;;;;;;4899779;29;19919;-76
2023/10/31 13:55:37;;;;;;;;;;;14.40;99.90;;;;;;4903900;29;19912;-75
2023/10/31 13:58:06;;;;;;;;;;;14.30;99.90;;;;;;4898170;29;19911;-77
2023/10/31 14:00:37;;;;;;;;;;;14.20;99.90;;;;;;4917096;29;20256;-78
2023/10/31 14:03:19;;;;;;;;;;;14.20;99.90;;;;;;4911106;29;19922;-77
2023/10/31 14:05:51;;;;;;;;;;;14.30;99.90;;;;;;4910974;29;20216;-77
2023/10/31 14:08:16;;;;;;;;;;;14.30;99.90;;;;;;4914194;29;19930;-77
2023/10/31 14:10:45;;;;;;;;;;;14.30;99.90;;;;;;4911374;29;19916;-77
2023/10/31 14:13:12;;;;;;;;;;;14.30;99.90;;;;;;4895061;29;19907;-76
2023/10/31 14:15:47;;;;;;;;;;;14.30;99.90;;;;;;4911125;29;20510;-76
2023/10/31 14:18:17;;;;;;;;;;;14.40;99.90;;;;;;4910699;29;19911;-80
2023/10/31 14:20:43;;;;;;;;;;;14.40;99.90;;;;;;4895940;29;19951;-79
2023/10/31 14:23:12;;;;;;;;;;;14.40;99.90;;;;;;4911769;29;20133;-78
2023/10/31 14:25:43;;;;;;;;;;;14.50;99.90;;;;;;4911957;29;19946;-77
2023/10/31 14:28:39;;;;;;;;;;;14.40;99.90;;;;;;4926926;29;19958;-75
2023/10/31 14:31:12;;;;;;;;;;;14.30;99.90;;;;;;4871804;29;20119;-78
2023/10/31 14:33:53;;;;;;;;;;;14.30;99.90;;;;;;4909884;29;19912;-77
2023/10/31 14:36:22;;;;;;;;;;;14.20;99.90;;;;;;4902675;29;20105;-76
2023/10/31 14:38:59;;;;;;;;;;;14.20;99.90;;;;;;4938900;29;19918;-77
2023/10/31 14:41:33;;;;;;;;;;;14.30;99.90;;;;;;4912993;29;20181;-77
2023/10/31 14:44:29;;;;;;;;;;;14.30;99.90;;;;;;4932430;29;20058;-77
2023/10/31 14:47:04;;;;;;;;;;;14.40;99.90;;;;;;4917374;29;19919;-76
2023/10/31 14:52:27;;;;;;;;;;;14.30;99.90;;;;;;4896443;29;19915;-76
2023/10/31 14:55:09;;;;;;;;;;;14.40;99.90;;;;;;4909923;29;19911;-78
2023/10/31 14:57:35;;;;;;;;;;;14.20;99.90;;;;;;4926543;29;19911;-76
2023/10/31 15:00:31;;;;;;;;;;;14.20;99.90;;;;;;4925671;29;20261;-78
2023/10/31 15:03:08;;;;;;;;;;;14.00;99.90;;;;;;4925526;29;20204;-76
2023/10/31 15:05:34;;;;;;;;;;;13.80;99.90;;;;;;4909551;29;20219;-77
2023/10/31 15:08:42;;;;;;;;;;;13.70;99.90;;;;;;4924310;29;20224;-78
2023/10/31 15:11:08;;;;;;;;;;;13.50;99.90;;;;;;4909381;29;19970;-77
2023/10/31 15:13:40;;;;;;;;;;;13.40;99.90;;;;;;4909832;29;20205;-76
2023/10/31 15:16:07;;;;;;;;;;;13.40;99.90;;;;;;4906429;29;19955;-76
2023/10/31 15:18:32;;;;;;;;;;;13.40;99.90;;;;;;4901096;29;20142;-76
2023/10/31 15:20:59;;;;;;;;;;;13.40;99.90;;;;;;4922478;29;20224;-77
2023/10/31 15:23:30;;;;;;;;;;;13.40;99.90;;;;;;4909082;29;20189;-77
2023/10/31 15:26:08;;;;;;;;;;;13.40;99.90;;;;;;4906249;29;19907;-77
2023/10/31 15:28:59;;;;;;;;;;;13.40;99.90;;;;;;4912985;29;19921;-77
2023/10/31 15:31:28;;;;;;;;;;;13.30;99.90;;;;;;4908990;29;19911;-78
2023/10/31 15:33:53;;;;;;;;;;;13.20;99.90;;;;;;4909345;29;19918;-77
2023/10/31 15:36:22;;;;;;;;;;;13.10;99.90;;;;;;4925046;29;19907;-77
2023/10/31 15:41:42;;;;;;;;;;;13.00;99.90;;;;;;4917784;29;19915;-80
2023/10/31 15:44:31;;;;;;;;;;;12.90;99.90;;;;;;4922904;29;19914;-76
2023/10/31 15:47:02;;;;;;;;;;;12.90;99.90;;;;;;4921491;29;19990;-76
2023/10/31 15:49:31;;;;;;;;;;;12.80;99.90;;;;;;4924646;29;19917;-77
2023/10/31 15:52:22;;;;;;;;;;;12.80;99.90;;;;;;4917932;29;19918;-76
2023/10/31 15:54:50;;;;;;;;;;;12.80;99.90;;;;;;4909252;29;19974;-76
2023/10/31 15:57:20;;;;;;;;;;;12.80;99.90;;;;;;4929058;29;20078;-78
2023/10/31 15:59:49;;;;;;;;;;;12.80;99.90;;;;;;4906979;29;19907;-77
2023/10/31 16:02:18;;;;;;;;;;;12.80;99.90;;;;;;4908406;29;20189;-77
2023/10/31 16:04:46;;;;;;;;;;;12.80;99.90;;;;;;4934078;29;19911;-77
2023/10/31 16:07:20;;;;;;;;;;;12.80;99.90;;;;;;4942348;29;19911;-77
2023/10/31 16:09:51;;;;;;;;;;;12.80;99.90;;;;;;4927765;29;19918;-76
2023/10/31 16:12:18;;;;;;;;;;;12.80;99.90;;;;;;4959234;29;19910;-77
2023/10/31 16:14:53;;;;;;;;;;;12.80;99.90;;;;;;4932296;29;19907;-77
2023/10/31 16:17:39;;;;;;;;;;;12.80;99.90;;;;;;4927513;29;19917;-77
2023/10/31 16:20:05;;;;;;;;;;;12.80;99.90;;;;;;4927614;29;19911;-77
2023/10/31 16:22:33;;;;;;;;;;;12.80;99.90;;;;;;4927330;29;19917;-78
2023/10/31 16:24:59;;;;;;;;;;;12.80;99.90;;;;;;4945051;29;19914;-76
2023/10/31 16:27:28;;;;;;;;;;;12.80;99.90;;;;;;4927769;29;19966;-77
2023/10/31 16:29:53;;;;;;;;;;;12.70;99.90;;;;;;4913683;29;19915;-76
2023/10/31 16:32:25;;;;;;;;;;;12.70;99.90;;;;;;4923936;29;19918;-77
2023/10/31 16:34:57;;;;;;;;;;;12.60;99.90;;;;;;4938284;29;19907;-76
2023/10/31 16:37:22;;;;;;;;;;;12.60;99.90;;;;;;4930447;29;19943;-77
2023/10/31 16:40:06;;;;;;;;;;;12.50;99.90;;;;;;4941250;29;19958;-76
2023/10/31 16:42:32;;;;;;;;;;;12.50;99.90;;;;;;4895723;29;20220;-77
2023/10/31 16:45:05;;;;;;;;;;;12.40;99.90;;;;;;4928111;29;19942;-77
2023/10/31 16:47:33;;;;;;;;;;;12.30;99.90;;;;;;4947165;29;20193;-77
2023/10/31 16:49:59;;;;;;;;;;;12.30;99.90;;;;;;4931187;29;19977;-76
2023/10/31 16:52:25;;;;;;;;;;;12.30;99.90;;;;;;4914479;29;19911;-76
2023/10/31 16:54:50;;;;;;;;;;;12.20;99.90;;;;;;4947957;29;19973;-78
2023/10/31 16:57:34;;;;;;;;;;;12.20;99.90;;;;;;4931978;29;19911;-78
2023/10/31 17:00:00;;;;;;;;;;;12.20;99.90;;;;;;4929033;29;20212;-78
2023/10/31 17:02:25;;;;;;;;;;;12.20;99.90;;;;;;4911367;29;19911;-76
2023/10/31 17:04:56;;;;;;;;;;;12.20;99.90;;;;;;4928377;29;19911;-77
2023/10/31 17:07:37;;;;;;;;;;;12.10;99.90;;;;;;4913270;29;19959;-77
2023/10/31 17:16:54;;;;;;;;;;;12.00;99.90;;;;;;4916292;29;19963;-76
2023/10/31 17:19:52;;;;;;;;;;;11.90;99.90;;;;;;4889349;29;19950;-77
2023/10/31 17:23:02;;;;;;;;;;;;;;;;;;;;;
2023/10/31 17:25:30;;;;;;;;;;;11.90;99.90;;;;;;4888400;29;20254;-76
2023/10/31 17:28:24;;;;;;;;;;;11.90;99.90;;;;;;4900420;29;19922;-77
2023/10/31 17:30:50;;;;;;;;;;;11.90;99.90;;;;;;4914629;29;19974;-76
2023/10/31 17:33:27;;;;;;;;;;;11.90;99.90;;;;;;4928079;29;19911;-77
2023/10/31 17:36:34;;;;;;;;;;;11.90;99.90;;;;;;4859276;29;19912;-77
2023/10/31 17:39:00;;;;;;;;;;;11.80;99.90;;;;;;4854367;29;19951;-78
2023/10/31 17:42:07;;;;;;;;;;;11.70;99.90;;;;;;4853887;29;20106;-77
2023/10/31 17:44:49;;;;;;;;;;;11.60;99.90;;;;;;4881253;29;19939;-77
2023/10/31 17:47:14;;;;;;;;;;;11.60;99.90;;;;;;4873017;29;19912;-77
2023/10/31 17:49:40;;;;;;;;;;;11.50;99.90;;;;;;4868095;29;20152;-75
2023/10/31 17:52:06;;;;;;;;;;;11.50;99.90;;;;;;4887951;29;19915;-76
2023/10/31 17:54:31;;;;;;;;;;;11.40;99.90;;;;;;4887098;29;20049;-77
2023/10/31 17:56:57;;;;;;;;;;;11.40;99.90;;;;;;4872175;29;19975;-78
2023/10/31 17:59:23;;;;;;;;;;;11.30;99.90;;;;;;4887536;29;19912;-76
2023/10/31 18:01:52;;;;;;;;;;;11.30;99.90;;;;;;4887849;29;19912;-78
2023/10/31 18:04:18;;;;;;;;;;;11.30;99.90;;;;;;4872097;29;19927;-78
2023/10/31 18:09:28;;;;;;;;;;;11.10;99.90;;;;;;4889252;29;19920;-77
2023/10/31 18:11:54;;;;;;;;;;;11.00;99.90;;;;;;4934690;29;20220;-76
2023/10/31 18:14:20;;;;;;;;;;;11.10;99.90;;;;;;4909577;29;19933;-75
2023/10/31 18:17:07;;;;;;;;;;;11.10;99.90;;;;;;4924348;29;19953;-77
2023/10/31 18:19:32;;;;;;;;;;;11.20;99.90;;;;;;4915313;29;19911;-77
2023/10/31 18:22:02;;;;;;;;;;;11.30;99.90;;;;;;4918143;29;19911;-76
2023/10/31 18:24:29;;;;;;;;;;;11.30;99.90;;;;;;4923897;29;19911;-77
2023/10/31 18:26:55;;;;;;;;;;;11.40;99.90;;;;;;4919873;29;19913;-77
2023/10/31 18:29:21;;;;;;;;;;;11.40;99.90;;;;;;4889673;29;19920;-77
2023/10/31 18:35:38;;;;;;;;;;;11.50;99.90;;;;;;4832225;29;19988;-75
2023/10/31 18:38:04;;;;;;;;;;;11.60;99.90;;;;;;4827037;29;19920;-77
2023/10/31 18:40:33;;;;;;;;;;;11.60;99.90;;;;;;4831146;29;19929;-76
2023/10/31 18:43:01;;;;;;;;;;;11.60;99.90;;;;;;4808652;29;19924;-74
2023/10/31 18:45:33;;;;;;;;;;;11.50;99.90;;;;;;4829589;29;19978;-75
2023/10/31 18:48:04;;;;;;;;;;;11.50;99.90;;;;;;4832069;29;19948;-74
2023/10/31 18:50:33;;;;;;;;;;;11.50;99.90;;;;;;4825960;29;19913;-74
2023/10/31 18:53:01;;;;;;;;;;;11.40;99.90;;;;;;4828572;29;20237;-75
2023/10/31 18:55:27;;;;;;;;;;;11.50;99.90;;;;;;4832175;29;20174;-74
2023/10/31 18:57:56;;;;;;;;;;;11.50;99.90;;;;;;4815499;29;19912;-74
2023/10/31 19:00:24;;;;;;;;;;;11.50;99.90;;;;;;4828340;29;19919;-74
2023/10/31 19:02:53;;;;;;;;;;;11.60;99.90;;;;;;4828065;29;19944;-75
2023/10/31 19:05:23;;;;;;;;;;;11.60;99.90;;;;;;4833957;29;19978;-75
2023/10/31 19:07:50;;;;;;;;;;;11.70;99.90;;;;;;4875485;29;19919;-75
2023/10/31 19:10:16;;;;;;;;;;;11.70;99.90;;;;;;4907512;29;19908;-74
2023/10/31 19:12:42;;;;;;;;;;;11.70;99.90;;;;;;4897335;29;20255;-76
2023/10/31 19:15:16;;;;;;;;;;;11.70;99.90;;;;;;4902019;29;19911;-75
2023/10/31 19:17:56;;;;;;;;;;;11.80;99.90;;;;;;4873146;29;20378;-75
2023/10/31 19:20:37;;;;;;;;;;;11.80;99.90;;;;;;4890080;29;19920;-75
2023/10/31 19:23:06;;;;;;;;;;;11.70;99.90;;;;;;4871536;29;19912;-75
2023/10/31 19:25:39;;;;;;;;;;;11.70;99.90;;;;;;4895355;29;20169;-77
2023/10/31 19:28:29;;;;;;;;;;;11.70;99.90;;;;;;4875039;29;19960;-75
2023/10/31 19:31:07;;;;;;;;;;;11.80;99.90;;;;;;4892887;29;19975;-76
2023/10/31 19:33:33;;;;;;;;;;;11.80;99.90;;;;;;4857464;29;19918;-74
2023/10/31 19:35:59;;;;;;;;;;;11.80;99.90;;;;;;4881056;29;20186;-74
2023/10/31 19:38:29;;;;;;;;;;;11.80;99.90;;;;;;4872275;29;19919;-76
2023/10/31 19:41:21;;;;;;;;;;;11.90;99.90;;;;;;4899981;29;19919;-78
2023/10/31 19:43:54;;;;;;;;;;;11.80;99.90;;;;;;4876086;29;20196;-77
2023/10/31 19:46:20;;;;;;;;;;;11.80;99.90;;;;;;4890647;29;19919;-74
2023/10/31 19:49:15;;;;;;;;;;;11.80;99.90;;;;;;4874812;29;19923;-74
2023/10/31 19:52:22;;;;;;;;;;;11.80;99.90;;;;;;4893964;29;19955;-75
2023/10/31 19:54:48;;;;;;;;;;;11.80;99.90;;;;;;4874809;29;20215;-76
2023/10/31 19:57:18;;;;;;;;;;;11.90;99.90;;;;;;4890479;29;19911;-75
2023/10/31 19:59:59;;;;;;;;;;;11.90;99.90;;;;;;4872214;29;19908;-76
2023/10/31 20:02:25;;;;;;;;;;;11.90;99.90;;;;;;4887191;29;19964;-75
2023/10/31 20:04:58;;;;;;;;;;;11.90;99.90;;;;;;4889436;29;19912;-77
2023/10/31 20:07:38;;;;;;;;;;;11.90;99.90;;;;;;4888751;29;19922;-75
2023/10/31 20:10:07;;;;;;;;;;;11.90;99.90;;;;;;4875037;29;19975;-75
2023/10/31 20:12:36;;;;;;;;;;;11.90;99.90;;;;;;4874965;29;19911;-76
2023/10/31 20:15:02;;;;;;;;;;;11.90;99.90;;;;;;4892417;29;19908;-83
2023/10/31 20:17:27;;;;;;;;;;;11.90;99.90;;;;;;4894035;29;19919;-80
2023/10/31 20:19:56;;;;;;;;;;;12.00;99.90;;;;;;4892045;29;19944;-77
2023/10/31 20:22:35;;;;;;;;;;;11.90;99.90;;;;;;4875414;29;19964;-79
2023/10/31 20:25:03;;;;;;;;;;;11.90;99.90;;;;;;4890628;29;20170;-76
2023/10/31 20:27:38;;;;;;;;;;;12.00;99.90;;;;;;4891240;29;19915;-77
2023/10/31 20:30:04;;;;;;;;;;;12.00;99.90;;;;;;4874916;29;19911;-77
2023/10/31 20:32:45;;;;;;;;;;;12.00;99.90;;;;;;4876034;29;19960;-74
2023/10/31 20:35:21;;;;;;;;;;;12.00;99.90;;;;;;4874963;29;20216;-75
2023/10/31 20:37:46;;;;;;;;;;;12.00;99.90;;;;;;4886276;29;20240;-75
2023/10/31 20:40:15;;;;;;;;;;;11.90;99.90;;;;;;4892610;29;19919;-75
2023/10/31 20:43:12;;;;;;;;;;;11.90;99.90;;;;;;4909861;29;20138;-76
2023/10/31 20:45:47;;;;;;;;;;;11.80;99.90;;;;;;4909606;29;19912;-75
2023/10/31 20:51:33;;;;;;;;;;;11.70;99.90;;;;;;4891431;29;20142;-76
2023/10/31 20:54:02;;;;;;;;;;;11.60;99.90;;;;;;4890545;29;20094;-76
2023/10/31 20:56:33;;;;;;;;;;;11.60;99.90;;;;;;4890212;29;19935;-79
2023/10/31 20:59:09;;;;;;;;;;;11.50;99.90;;;;;;4880438;29;19912;-77
2023/10/31 21:02:04;;;;;;;;;;;11.50;99.90;;;;;;4891571;29;19918;-75
2023/10/31 21:07:42;;;;;;;;;;;11.40;99.90;;;;;;4834606;29;19931;-77
2023/10/31 21:10:08;;;;;;;;;;;11.40;99.90;;;;;;4852341;29;19913;-75
2023/10/31 21:12:34;;;;;;;;;;;11.40;99.90;;;;;;4851371;29;19928;-76
2023/10/31 21:15:22;;;;;;;;;;;11.50;99.90;;;;;;4850208;29;19912;-77
2023/10/31 21:17:47;;;;;;;;;;;11.40;99.90;;;;;;4818235;29;19913;-76
2023/10/31 21:20:28;;;;;;;;;;;11.40;99.90;;;;;;4818379;29;19938;-77
2023/10/31 21:25:39;;;;;;;;;;;11.30;99.90;;;;;;4836152;29;20240;-75
2023/10/31 21:28:07;;;;;;;;;;;11.30;99.90;;;;;;4851733;29;19920;-77
2023/10/31 21:30:35;;;;;;;;;;;11.20;99.90;;;;;;4851226;29;20091;-76
2023/10/31 21:33:07;;;;;;;;;;;11.20;99.90;;;;;;4843454;29;19920;-75
2023/10/31 21:35:48;;;;;;;;;;;11.10;99.90;;;;;;4817638;29;20144;-77
2023/10/31 21:38:13;;;;;;;;;;;11.10;99.90;;;;;;4831793;29;20236;-77
2023/10/31 21:41:05;;;;;;;;;;;11.10;99.90;;;;;;4820587;29;20078;-76
2023/10/31 21:43:31;;;;;;;;;;;11.10;99.90;;;;;;4851491;29;20029;-77
2023/10/31 21:45:57;;;;;;;;;;;11.10;99.90;;;;;;4881374;29;19916;-77
2023/10/31 21:48:25;;;;;;;;;;;11.00;99.90;;;;;;4892526;29;19992;-77
2023/10/31 21:50:52;;;;;;;;;;;10.90;99.90;;;;;;4892054;29;20070;-75
2023/10/31 21:56:13;;;;;;;;;;;10.70;99.90;;;;;;4895099;29;20121;-77
2023/10/31 21:58:42;;;;;;;;;;;10.70;99.90;;;;;;4874699;29;19946;-76
2023/10/31 22:01:11;;;;;;;;;;;10.60;99.90;;;;;;4873456;29;20138;-76
2023/10/31 22:03:38;;;;;;;;;;;10.60;99.90;;;;;;4872995;29;20202;-77
2023/10/31 22:06:15;;;;;;;;;;;10.60;99.90;;;;;;4890180;29;20020;-76
2023/10/31 22:08:55;;;;;;;;;;;10.50;99.90;;;;;;4875560;29;19927;-77
2023/10/31 22:11:20;;;;;;;;;;;10.50;99.90;;;;;;4876327;29;20248;-77
2023/10/31 22:13:46;;;;;;;;;;;10.40;99.90;;;;;;4891252;29;19912;-77
2023/10/31 22:16:11;;;;;;;;;;;10.30;99.90;;;;;;4875509;29;19916;-77
2023/10/31 22:18:37;;;;;;;;;;;10.30;99.90;;;;;;4907444;29;19942;-77
2023/10/31 22:21:03;;;;;;;;;;;10.30;99.90;;;;;;4891641;29;19974;-77
2023/10/31 22:23:29;;;;;;;;;;;10.40;99.90;;;;;;4891778;29;19912;-76
2023/10/31 22:26:20;;;;;;;;;;;10.30;99.90;;;;;;4908309;29;20665;-75
2023/10/31 22:28:59;;;;;;;;;;;10.20;99.90;;;;;;4892236;29;19950;-76
2023/10/31 22:31:38;;;;;;;;;;;10.20;99.90;;;;;;4876576;29;19971;-77
2023/10/31 22:34:03;;;;;;;;;;;10.10;99.90;;;;;;4887755;29;19949;-77
2023/10/31 22:36:30;;;;;;;;;;;10.20;99.90;;;;;;4884547;29;20098;-78
2023/10/31 22:38:58;;;;;;;;;;;10.20;99.90;;;;;;4872247;29;20109;-76
2023/10/31 22:41:24;;;;;;;;;;;10.40;99.90;;;;;;4872794;29;19912;-76
2023/10/31 22:43:53;;;;;;;;;;;10.50;99.90;;;;;;4887801;29;19986;-76
2023/10/31 22:46:36;;;;;;;;;;;10.70;99.90;;;;;;4900010;29;19927;-77
2023/10/31 22:49:02;;;;;;;;;;;10.80;99.90;;;;;;4907845;29;19916;-78
2023/10/31 22:51:27;;;;;;;;;;;10.80;99.90;;;;;;4906378;29;19942;-77
2023/10/31 22:53:56;;;;;;;;;;;10.70;99.90;;;;;;4872933;29;19908;-77